sensor_id;sensor_type;location;lat;lon;timestamp;P1;durP1;ratioP1;P2;durP2;ratioP2
37451;SDS011;23314;51.114;6.900;2023-02-14T00:01:50;11.80;;;8.67;;
37451;SDS011;23314;51.114;6.900;2023-02-14T00:04:16;10.77;;;8.37;;
37451;SDS011;23314;51.114;6.900;2023-02-14T00:06:42;12.37;;;9.10;;
37451;SDS011;23314;51.114;6.900;2023-02-14T00:09:12;12.03;;;8.10;;
37451;SDS011;23314;51.114;6.900;2023-02-14T00:11:40;11.97;;;8.13;;
37451;SDS011;23314;51.114;6.900;2023-02-14T00:14:05;14.23;;;8.63;;
37451;SDS011;23314;51.114;6.900;2023-02-14T00:16:50;10.43;;;8.50;;
37451;SDS011;23314;51.114;6.900;2023-02-14T00:19:16;11.67;;;8.57;;
37451;SDS011;23314;51.114;6.900;2023-02-14T00:21:43;12.43;;;8.67;;
37451;SDS011;23314;51.114;6.900;2023-02-14T00:24:10;12.20;;;9.23;;
37451;SDS011;23314;51.114;6.900;2023-02-14T00:26:40;12.47;;;8.80;;
37451;SDS011;23314;51.114;6.900;2023-02-14T00:29:07;14.53;;;9.93;;
37451;SDS011;23314;51.114;6.900;2023-02-14T00:31:35;11.93;;;9.53;;
37451;SDS011;23314;51.114;6.900;2023-02-14T00:34:01;13.87;;;9.27;;
37451;SDS011;23314;51.114;6.900;2023-02-14T00:36:27;12.83;;;9.07;;
37451;SDS011;23314;51.114;6.900;2023-02-14T00:38:53;10.33;;;8.93;;
37451;SDS011;23314;51.114;6.900;2023-02-14T00:41:18;12.90;;;9.00;;
37451;SDS011;23314;51.114;6.900;2023-02-14T00:43:44;11.97;;;9.57;;
37451;SDS011;23314;51.114;6.900;2023-02-14T00:46:11;10.00;;;8.93;;
37451;SDS011;23314;51.114;6.900;2023-02-14T00:48:36;11.97;;;9.27;;
37451;SDS011;23314;51.114;6.900;2023-02-14T00:51:02;15.50;;;9.53;;
37451;SDS011;23314;51.114;6.900;2023-02-14T00:53:27;13.93;;;9.37;;
37451;SDS011;23314;51.114;6.900;2023-02-14T00:55:52;11.77;;;8.90;;
37451;SDS011;23314;51.114;6.900;2023-02-14T00:58:17;11.00;;;8.50;;
37451;SDS011;23314;51.114;6.900;2023-02-14T01:00:43;13.53;;;9.63;;
37451;SDS011;23314;51.114;6.900;2023-02-14T01:03:08;12.77;;;8.73;;
37451;SDS011;23314;51.114;6.900;2023-02-14T01:05:33;11.47;;;9.30;;
37451;SDS011;23314;51.114;6.900;2023-02-14T01:07:59;11.97;;;9.27;;
37451;SDS011;23314;51.114;6.900;2023-02-14T01:10:24;9.90;;;8.63;;
37451;SDS011;23314;51.114;6.900;2023-02-14T01:12:49;11.57;;;9.03;;
37451;SDS011;23314;51.114;6.900;2023-02-14T01:15:15;12.53;;;9.10;;
37451;SDS011;23314;51.114;6.900;2023-02-14T01:17:40;12.60;;;8.73;;
37451;SDS011;23314;51.114;6.900;2023-02-14T01:20:06;10.67;;;8.73;;
37451;SDS011;23314;51.114;6.900;2023-02-14T01:22:35;14.30;;;9.57;;
37451;SDS011;23314;51.114;6.900;2023-02-14T01:25:01;11.60;;;9.60;;
37451;SDS011;23314;51.114;6.900;2023-02-14T01:27:26;14.77;;;10.10;;
37451;SDS011;23314;51.114;6.900;2023-02-14T01:29:52;14.53;;;9.03;;
37451;SDS011;23314;51.114;6.900;2023-02-14T01:32:17;15.77;;;9.17;;
37451;SDS011;23314;51.114;6.900;2023-02-14T01:34:43;13.20;;;9.73;;
37451;SDS011;23314;51.114;6.900;2023-02-14T01:37:08;13.97;;;9.97;;
37451;SDS011;23314;51.114;6.900;2023-02-14T01:39:33;11.70;;;9.50;;
37451;SDS011;23314;51.114;6.900;2023-02-14T01:41:59;13.33;;;9.43;;
37451;SDS011;23314;51.114;6.900;2023-02-14T01:46:50;12.77;;;9.50;;
37451;SDS011;23314;51.114;6.900;2023-02-14T01:49:23;14.03;;;10.63;;
37451;SDS011;23314;51.114;6.900;2023-02-14T01:51:52;10.90;;;9.67;;
37451;SDS011;23314;51.114;6.900;2023-02-14T01:54:22;12.13;;;9.37;;
37451;SDS011;23314;51.114;6.900;2023-02-14T01:56:50;11.53;;;9.20;;
37451;SDS011;23314;51.114;6.900;2023-02-14T01:59:20;13.23;;;9.57;;
37451;SDS011;23314;51.114;6.900;2023-02-14T02:01:51;13.67;;;10.07;;
37451;SDS011;23314;51.114;6.900;2023-02-14T02:04:24;11.60;;;9.77;;
37451;SDS011;23314;51.114;6.900;2023-02-14T02:06:54;12.80;;;9.93;;
37451;SDS011;23314;51.114;6.900;2023-02-14T02:09:25;13.47;;;9.73;;
37451;SDS011;23314;51.114;6.900;2023-02-14T02:11:55;13.13;;;10.37;;
37451;SDS011;23314;51.114;6.900;2023-02-14T02:14:21;12.87;;;10.13;;
37451;SDS011;23314;51.114;6.900;2023-02-14T02:21:55;15.60;;;11.03;;
37451;SDS011;23314;51.114;6.900;2023-02-14T02:24:35;13.80;;;10.93;;
37451;SDS011;23314;51.114;6.900;2023-02-14T02:27:24;13.37;;;10.57;;
37451;SDS011;23314;51.114;6.900;2023-02-14T02:30:05;12.70;;;10.37;;
37451;SDS011;23314;51.114;6.900;2023-02-14T02:33:19;14.23;;;10.80;;
37451;SDS011;23314;51.114;6.900;2023-02-14T02:44:19;13.80;;;11.40;;
37451;SDS011;23314;51.114;6.900;2023-02-14T02:55:41;17.40;;;11.17;;
37451;SDS011;23314;51.114;6.900;2023-02-14T02:58:44;18.93;;;11.73;;
37451;SDS011;23314;51.114;6.900;2023-02-14T03:01:15;22.43;;;12.17;;
37451;SDS011;23314;51.114;6.900;2023-02-14T03:03:45;14.33;;;11.10;;
37451;SDS011;23314;51.114;6.900;2023-02-14T03:06:32;14.83;;;11.23;;
37451;SDS011;23314;51.114;6.900;2023-02-14T03:09:08;18.13;;;12.87;;
37451;SDS011;23314;51.114;6.900;2023-02-14T03:11:37;15.70;;;11.93;;
37451;SDS011;23314;51.114;6.900;2023-02-14T03:14:18;15.27;;;11.57;;
37451;SDS011;23314;51.114;6.900;2023-02-14T03:17:02;15.43;;;12.10;;
37451;SDS011;23314;51.114;6.900;2023-02-14T03:19:46;16.73;;;11.83;;
37451;SDS011;23314;51.114;6.900;2023-02-14T03:25:46;16.20;;;12.10;;
37451;SDS011;23314;51.114;6.900;2023-02-14T03:28:38;17.83;;;12.40;;
37451;SDS011;23314;51.114;6.900;2023-02-14T03:31:15;18.80;;;12.90;;
37451;SDS011;23314;51.114;6.900;2023-02-14T03:34:00;18.50;;;12.00;;
37451;SDS011;23314;51.114;6.900;2023-02-14T03:36:39;20.17;;;13.57;;
37451;SDS011;23314;51.114;6.900;2023-02-14T03:41:49;18.80;;;13.77;;
37451;SDS011;23314;51.114;6.900;2023-02-14T03:44:21;18.40;;;14.20;;
37451;SDS011;23314;51.114;6.900;2023-02-14T03:46:54;15.93;;;12.53;;
37451;SDS011;23314;51.114;6.900;2023-02-14T03:49:27;23.17;;;13.53;;
37451;SDS011;23314;51.114;6.900;2023-02-14T03:51:56;17.70;;;13.93;;
37451;SDS011;23314;51.114;6.900;2023-02-14T03:54:24;20.97;;;14.17;;
37451;SDS011;23314;51.114;6.900;2023-02-14T03:57:03;19.10;;;14.80;;
37451;SDS011;23314;51.114;6.900;2023-02-14T03:59:36;22.83;;;15.43;;
37451;SDS011;23314;51.114;6.900;2023-02-14T04:04:32;21.10;;;14.30;;
37451;SDS011;23314;51.114;6.900;2023-02-14T04:07:10;26.27;;;16.60;;
37451;SDS011;23314;51.114;6.900;2023-02-14T04:09:37;26.63;;;16.53;;
37451;SDS011;23314;51.114;6.900;2023-02-14T04:12:03;24.07;;;15.70;;
37451;SDS011;23314;51.114;6.900;2023-02-14T04:14:28;23.00;;;15.60;;
37451;SDS011;23314;51.114;6.900;2023-02-14T04:16:54;26.53;;;15.93;;
37451;SDS011;23314;51.114;6.900;2023-02-14T04:19:38;25.30;;;16.50;;
37451;SDS011;23314;51.114;6.900;2023-02-14T04:22:03;20.03;;;14.87;;
37451;SDS011;23314;51.114;6.900;2023-02-14T04:24:29;21.40;;;14.70;;
37451;SDS011;23314;51.114;6.900;2023-02-14T04:26:54;21.57;;;15.27;;
37451;SDS011;23314;51.114;6.900;2023-02-14T04:29:34;22.00;;;14.87;;
37451;SDS011;23314;51.114;6.900;2023-02-14T04:32:11;22.13;;;14.90;;
37451;SDS011;23314;51.114;6.900;2023-02-14T04:34:39;22.43;;;15.70;;
37451;SDS011;23314;51.114;6.900;2023-02-14T04:37:04;28.03;;;16.33;;
37451;SDS011;23314;51.114;6.900;2023-02-14T04:39:31;22.93;;;15.57;;
37451;SDS011;23314;51.114;6.900;2023-02-14T04:41:57;28.00;;;17.27;;
37451;SDS011;23314;51.114;6.900;2023-02-14T04:44:22;22.17;;;16.03;;
37451;SDS011;23314;51.114;6.900;2023-02-14T04:46:48;27.20;;;17.00;;
37451;SDS011;23314;51.114;6.900;2023-02-14T04:49:14;24.60;;;16.53;;
37451;SDS011;23314;51.114;6.900;2023-02-14T04:51:39;27.90;;;16.83;;
37451;SDS011;23314;51.114;6.900;2023-02-14T04:54:05;22.73;;;15.57;;
37451;SDS011;23314;51.114;6.900;2023-02-14T04:56:30;24.20;;;16.17;;
37451;SDS011;23314;51.114;6.900;2023-02-14T04:58:55;27.23;;;17.40;;
37451;SDS011;23314;51.114;6.900;2023-02-14T05:01:21;23.83;;;16.77;;
37451;SDS011;23314;51.114;6.900;2023-02-14T05:03:46;23.70;;;16.27;;
37451;SDS011;23314;51.114;6.900;2023-02-14T05:06:11;25.93;;;16.70;;
37451;SDS011;23314;51.114;6.900;2023-02-14T05:08:36;25.67;;;16.73;;
37451;SDS011;23314;51.114;6.900;2023-02-14T05:11:02;25.93;;;16.43;;
37451;SDS011;23314;51.114;6.900;2023-02-14T05:13:27;27.30;;;17.53;;
37451;SDS011;23314;51.114;6.900;2023-02-14T05:15:53;29.07;;;18.13;;
37451;SDS011;23314;51.114;6.900;2023-02-14T05:18:19;24.10;;;16.23;;
37451;SDS011;23314;51.114;6.900;2023-02-14T05:20:44;25.90;;;17.00;;
37451;SDS011;23314;51.114;6.900;2023-02-14T05:23:13;25.20;;;17.10;;
37451;SDS011;23314;51.114;6.900;2023-02-14T05:25:39;27.23;;;16.63;;
37451;SDS011;23314;51.114;6.900;2023-02-14T05:28:05;30.73;;;19.23;;
37451;SDS011;23314;51.114;6.900;2023-02-14T05:30:30;31.80;;;18.90;;
37451;SDS011;23314;51.114;6.900;2023-02-14T05:32:56;33.10;;;20.03;;
37451;SDS011;23314;51.114;6.900;2023-02-14T05:35:21;36.07;;;22.20;;
37451;SDS011;23314;51.114;6.900;2023-02-14T05:37:46;35.40;;;21.70;;
37451;SDS011;23314;51.114;6.900;2023-02-14T05:40:12;38.57;;;21.93;;
37451;SDS011;23314;51.114;6.900;2023-02-14T05:42:39;38.80;;;22.83;;
37451;SDS011;23314;51.114;6.900;2023-02-14T05:45:04;36.43;;;21.97;;
37451;SDS011;23314;51.114;6.900;2023-02-14T05:47:30;36.33;;;22.43;;
37451;SDS011;23314;51.114;6.900;2023-02-14T05:49:55;40.77;;;21.97;;
37451;SDS011;23314;51.114;6.900;2023-02-14T05:52:21;42.03;;;23.27;;
37451;SDS011;23314;51.114;6.900;2023-02-14T05:54:46;39.67;;;22.80;;
37451;SDS011;23314;51.114;6.900;2023-02-14T05:57:11;37.50;;;22.10;;
37451;SDS011;23314;51.114;6.900;2023-02-14T05:59:37;37.77;;;22.30;;
37451;SDS011;23314;51.114;6.900;2023-02-14T06:02:02;38.70;;;23.40;;
37451;SDS011;23314;51.114;6.900;2023-02-14T06:04:27;34.47;;;22.53;;
37451;SDS011;23314;51.114;6.900;2023-02-14T06:06:53;39.03;;;23.03;;
37451;SDS011;23314;51.114;6.900;2023-02-14T06:09:18;39.77;;;23.33;;
37451;SDS011;23314;51.114;6.900;2023-02-14T06:11:43;43.37;;;25.67;;
37451;SDS011;23314;51.114;6.900;2023-02-14T06:14:09;40.33;;;24.27;;
37451;SDS011;23314;51.114;6.900;2023-02-14T06:16:34;42.93;;;24.23;;
37451;SDS011;23314;51.114;6.900;2023-02-14T06:19:00;43.57;;;24.37;;
37451;SDS011;23314;51.114;6.900;2023-02-14T06:21:25;44.33;;;24.97;;
37451;SDS011;23314;51.114;6.900;2023-02-14T06:23:50;43.53;;;25.00;;
37451;SDS011;23314;51.114;6.900;2023-02-14T06:26:16;45.33;;;25.33;;
37451;SDS011;23314;51.114;6.900;2023-02-14T06:28:41;46.80;;;25.83;;
37451;SDS011;23314;51.114;6.900;2023-02-14T06:31:07;42.93;;;25.13;;
37451;SDS011;23314;51.114;6.900;2023-02-14T06:33:32;45.37;;;24.73;;
37451;SDS011;23314;51.114;6.900;2023-02-14T06:35:57;41.47;;;25.13;;
37451;SDS011;23314;51.114;6.900;2023-02-14T06:38:23;50.20;;;25.83;;
37451;SDS011;23314;51.114;6.900;2023-02-14T06:40:48;46.90;;;26.33;;
37451;SDS011;23314;51.114;6.900;2023-02-14T06:43:13;49.53;;;26.50;;
37451;SDS011;23314;51.114;6.900;2023-02-14T06:45:39;48.17;;;26.53;;
37451;SDS011;23314;51.114;6.900;2023-02-14T06:48:07;54.83;;;27.30;;
37451;SDS011;23314;51.114;6.900;2023-02-14T06:50:33;54.90;;;27.63;;
37451;SDS011;23314;51.114;6.900;2023-02-14T06:52:59;49.57;;;26.03;;
37451;SDS011;23314;51.114;6.900;2023-02-14T06:55:25;47.93;;;27.07;;
37451;SDS011;23314;51.114;6.900;2023-02-14T06:57:50;50.47;;;26.93;;
37451;SDS011;23314;51.114;6.900;2023-02-14T07:00:15;50.37;;;26.57;;
37451;SDS011;23314;51.114;6.900;2023-02-14T07:02:41;49.07;;;26.63;;
37451;SDS011;23314;51.114;6.900;2023-02-14T07:05:07;49.93;;;27.20;;
37451;SDS011;23314;51.114;6.900;2023-02-14T07:07:32;51.13;;;27.40;;
37451;SDS011;23314;51.114;6.900;2023-02-14T07:09:57;48.07;;;27.87;;
37451;SDS011;23314;51.114;6.900;2023-02-14T07:12:23;51.83;;;29.00;;
37451;SDS011;23314;51.114;6.900;2023-02-14T07:14:48;50.33;;;27.73;;
37451;SDS011;23314;51.114;6.900;2023-02-14T07:17:13;49.17;;;27.23;;
37451;SDS011;23314;51.114;6.900;2023-02-14T07:19:39;51.00;;;28.50;;
37451;SDS011;23314;51.114;6.900;2023-02-14T07:22:04;52.90;;;27.77;;
37451;SDS011;23314;51.114;6.900;2023-02-14T07:24:29;50.97;;;29.17;;
37451;SDS011;23314;51.114;6.900;2023-02-14T07:26:54;51.40;;;29.20;;
37451;SDS011;23314;51.114;6.900;2023-02-14T07:29:20;55.37;;;30.33;;
37451;SDS011;23314;51.114;6.900;2023-02-14T07:31:45;58.17;;;30.33;;
37451;SDS011;23314;51.114;6.900;2023-02-14T07:34:10;49.17;;;28.70;;
37451;SDS011;23314;51.114;6.900;2023-02-14T07:36:36;45.10;;;27.47;;
37451;SDS011;23314;51.114;6.900;2023-02-14T07:39:03;50.27;;;27.73;;
37451;SDS011;23314;51.114;6.900;2023-02-14T07:41:28;46.27;;;27.47;;
37451;SDS011;23314;51.114;6.900;2023-02-14T07:43:54;46.60;;;26.77;;
37451;SDS011;23314;51.114;6.900;2023-02-14T07:46:19;45.17;;;25.87;;
37451;SDS011;23314;51.114;6.900;2023-02-14T07:48:44;46.57;;;26.77;;
37451;SDS011;23314;51.114;6.900;2023-02-14T07:51:09;39.60;;;25.50;;
37451;SDS011;23314;51.114;6.900;2023-02-14T07:53:35;46.27;;;27.37;;
37451;SDS011;23314;51.114;6.900;2023-02-14T07:56:00;40.87;;;26.03;;
37451;SDS011;23314;51.114;6.900;2023-02-14T07:58:26;45.23;;;26.23;;
37451;SDS011;23314;51.114;6.900;2023-02-14T08:00:51;39.30;;;24.50;;
37451;SDS011;23314;51.114;6.900;2023-02-14T08:03:16;42.87;;;25.17;;
37451;SDS011;23314;51.114;6.900;2023-02-14T08:05:42;37.43;;;25.37;;
37451;SDS011;23314;51.114;6.900;2023-02-14T08:08:08;47.00;;;24.50;;
37451;SDS011;23314;51.114;6.900;2023-02-14T08:10:33;40.13;;;25.30;;
37451;SDS011;23314;51.114;6.900;2023-02-14T08:12:58;39.60;;;23.07;;
37451;SDS011;23314;51.114;6.900;2023-02-14T08:15:28;36.37;;;23.83;;
37451;SDS011;23314;51.114;6.900;2023-02-14T08:18:17;31.63;;;22.57;;
37451;SDS011;23314;51.114;6.900;2023-02-14T08:20:44;37.60;;;22.37;;
37451;SDS011;23314;51.114;6.900;2023-02-14T08:23:16;35.37;;;23.03;;
37451;SDS011;23314;51.114;6.900;2023-02-14T08:25:42;32.17;;;21.13;;
37451;SDS011;23314;51.114;6.900;2023-02-14T08:28:08;36.80;;;22.40;;
37451;SDS011;23314;51.114;6.900;2023-02-14T08:30:35;33.20;;;20.93;;
37451;SDS011;23314;51.114;6.900;2023-02-14T08:33:02;32.60;;;22.07;;
37451;SDS011;23314;51.114;6.900;2023-02-14T08:35:27;32.87;;;21.33;;
37451;SDS011;23314;51.114;6.900;2023-02-14T08:37:53;32.40;;;20.23;;
37451;SDS011;23314;51.114;6.900;2023-02-14T08:40:18;32.47;;;21.13;;
37451;SDS011;23314;51.114;6.900;2023-02-14T08:42:44;35.43;;;21.00;;
37451;SDS011;23314;51.114;6.900;2023-02-14T08:45:09;28.77;;;21.10;;
37451;SDS011;23314;51.114;6.900;2023-02-14T08:47:35;31.53;;;21.03;;
37451;SDS011;23314;51.114;6.900;2023-02-14T08:50:03;29.77;;;20.67;;
37451;SDS011;23314;51.114;6.900;2023-02-14T08:52:29;29.37;;;19.90;;
37451;SDS011;23314;51.114;6.900;2023-02-14T08:54:55;30.10;;;20.47;;
37451;SDS011;23314;51.114;6.900;2023-02-14T08:57:20;28.63;;;20.23;;
37451;SDS011;23314;51.114;6.900;2023-02-14T08:59:46;27.00;;;20.13;;
37451;SDS011;23314;51.114;6.900;2023-02-14T09:02:14;31.40;;;20.43;;
37451;SDS011;23314;51.114;6.900;2023-02-14T09:04:42;30.63;;;20.70;;
37451;SDS011;23314;51.114;6.900;2023-02-14T09:07:10;29.53;;;20.07;;
37451;SDS011;23314;51.114;6.900;2023-02-14T09:09:35;32.83;;;21.67;;
37451;SDS011;23314;51.114;6.900;2023-02-14T09:12:04;29.77;;;19.87;;
37451;SDS011;23314;51.114;6.900;2023-02-14T09:14:38;29.97;;;19.53;;
37451;SDS011;23314;51.114;6.900;2023-02-14T09:17:05;29.10;;;20.07;;
37451;SDS011;23314;51.114;6.900;2023-02-14T09:19:31;25.67;;;19.63;;
37451;SDS011;23314;51.114;6.900;2023-02-14T09:21:58;29.83;;;20.53;;
37451;SDS011;23314;51.114;6.900;2023-02-14T09:24:23;36.67;;;20.73;;
37451;SDS011;23314;51.114;6.900;2023-02-14T09:26:49;33.47;;;20.90;;
37451;SDS011;23314;51.114;6.900;2023-02-14T09:29:14;29.67;;;18.53;;
37451;SDS011;23314;51.114;6.900;2023-02-14T09:31:40;34.73;;;19.93;;
37451;SDS011;23314;51.114;6.900;2023-02-14T09:34:05;27.47;;;19.27;;
37451;SDS011;23314;51.114;6.900;2023-02-14T09:36:31;28.90;;;19.07;;
37451;SDS011;23314;51.114;6.900;2023-02-14T09:38:57;27.43;;;19.73;;
37451;SDS011;23314;51.114;6.900;2023-02-14T09:41:31;30.00;;;20.00;;
37451;SDS011;23314;51.114;6.900;2023-02-14T09:46:58;29.07;;;18.93;;
37451;SDS011;23314;51.114;6.900;2023-02-14T09:49:33;31.00;;;19.57;;
37451;SDS011;23314;51.114;6.900;2023-02-14T09:52:02;29.27;;;20.00;;
37451;SDS011;23314;51.114;6.900;2023-02-14T09:54:31;27.90;;;18.67;;
37451;SDS011;23314;51.114;6.900;2023-02-14T09:57:00;29.87;;;19.07;;
37451;SDS011;23314;51.114;6.900;2023-02-14T10:05:56;32.00;;;18.20;;
37451;SDS011;23314;51.114;6.900;2023-02-14T10:11:33;25.60;;;18.20;;
37451;SDS011;23314;51.114;6.900;2023-02-14T10:14:10;26.47;;;17.57;;
37451;SDS011;23314;51.114;6.900;2023-02-14T10:16:44;27.07;;;19.03;;
37451;SDS011;23314;51.114;6.900;2023-02-14T10:19:15;28.23;;;17.43;;
37451;SDS011;23314;51.114;6.900;2023-02-14T10:22:20;24.97;;;17.67;;
37451;SDS011;23314;51.114;6.900;2023-02-14T10:25:01;25.97;;;16.77;;
37451;SDS011;23314;51.114;6.900;2023-02-14T10:27:38;27.57;;;17.77;;
37451;SDS011;23314;51.114;6.900;2023-02-14T10:30:16;23.43;;;17.80;;
37451;SDS011;23314;51.114;6.900;2023-02-14T10:44:02;25.53;;;17.03;;
37451;SDS011;23314;51.114;6.900;2023-02-14T10:46:41;23.97;;;18.03;;
37451;SDS011;23314;51.114;6.900;2023-02-14T10:49:28;24.47;;;17.33;;
37451;SDS011;23314;51.114;6.900;2023-02-14T10:52:21;26.60;;;18.37;;
37451;SDS011;23314;51.114;6.900;2023-02-14T10:55:12;25.87;;;18.67;;
37451;SDS011;23314;51.114;6.900;2023-02-14T10:57:47;28.93;;;18.57;;
37451;SDS011;23314;51.114;6.900;2023-02-14T11:00:24;22.70;;;18.00;;
37451;SDS011;23314;51.114;6.900;2023-02-14T11:02:56;23.13;;;17.37;;
37451;SDS011;23314;51.114;6.900;2023-02-14T11:07:50;33.53;;;17.83;;
37451;SDS011;23314;51.114;6.900;2023-02-14T11:10:15;24.77;;;17.30;;
37451;SDS011;23314;51.114;6.900;2023-02-14T11:12:44;24.47;;;17.23;;
37451;SDS011;23314;51.114;6.900;2023-02-14T11:17:34;26.00;;;17.70;;
37451;SDS011;23314;51.114;6.900;2023-02-14T11:20:03;24.77;;;17.43;;
37451;SDS011;23314;51.114;6.900;2023-02-14T11:22:46;26.73;;;18.17;;
37451;SDS011;23314;51.114;6.900;2023-02-14T11:25:22;23.30;;;16.90;;
37451;SDS011;23314;51.114;6.900;2023-02-14T11:27:56;26.80;;;16.87;;
37451;SDS011;23314;51.114;6.900;2023-02-14T11:30:33;20.43;;;16.30;;
37451;SDS011;23314;51.114;6.900;2023-02-14T11:33:02;23.40;;;17.27;;
37451;SDS011;23314;51.114;6.900;2023-02-14T11:35:29;24.87;;;17.33;;
37451;SDS011;23314;51.114;6.900;2023-02-14T11:37:59;29.10;;;18.27;;
37451;SDS011;23314;51.114;6.900;2023-02-14T11:43:39;23.30;;;17.73;;
37451;SDS011;23314;51.114;6.900;2023-02-14T11:45:53;24.43;;;17.50;;
37451;SDS011;23314;51.114;6.900;2023-02-14T11:48:29;24.23;;;16.37;;
37451;SDS011;23314;51.114;6.900;2023-02-14T11:51:04;23.03;;;16.73;;
37451;SDS011;23314;51.114;6.900;2023-02-14T11:53:36;23.20;;;16.83;;
37451;SDS011;23314;51.114;6.900;2023-02-14T11:56:11;22.63;;;17.07;;
37451;SDS011;23314;51.114;6.900;2023-02-14T11:58:39;24.70;;;16.87;;
37451;SDS011;23314;51.114;6.900;2023-02-14T12:01:19;21.37;;;16.27;;
37451;SDS011;23314;51.114;6.900;2023-02-14T12:03:48;23.00;;;16.10;;
37451;SDS011;23314;51.114;6.900;2023-02-14T12:06:24;26.10;;;16.97;;
37451;SDS011;23314;51.114;6.900;2023-02-14T12:11:58;18.40;;;15.20;;
37451;SDS011;23314;51.114;6.900;2023-02-14T12:14:24;19.90;;;15.10;;
37451;SDS011;23314;51.114;6.900;2023-02-14T12:17:03;21.33;;;15.77;;
37451;SDS011;23314;51.114;6.900;2023-02-14T12:22:14;22.90;;;15.93;;
37451;SDS011;23314;51.114;6.900;2023-02-14T12:24:49;25.30;;;16.30;;
37451;SDS011;23314;51.114;6.900;2023-02-14T12:27:22;18.27;;;15.73;;
37451;SDS011;23314;51.114;6.900;2023-02-14T12:30:03;20.97;;;15.40;;
37451;SDS011;23314;51.114;6.900;2023-02-14T12:32:35;20.50;;;15.83;;
37451;SDS011;23314;51.114;6.900;2023-02-14T12:35:12;23.13;;;15.63;;
37451;SDS011;23314;51.114;6.900;2023-02-14T12:40:47;19.40;;;15.47;;
37451;SDS011;23314;51.114;6.900;2023-02-14T12:49:22;19.33;;;15.37;;
37451;SDS011;23314;51.114;6.900;2023-02-14T12:52:16;20.77;;;14.80;;
37451;SDS011;23314;51.114;6.900;2023-02-14T12:55:17;21.37;;;14.90;;
37451;SDS011;23314;51.114;6.900;2023-02-14T12:57:56;21.87;;;15.60;;
37451;SDS011;23314;51.114;6.900;2023-02-14T13:00:33;21.17;;;16.37;;
37451;SDS011;23314;51.114;6.900;2023-02-14T13:08:55;21.33;;;14.70;;
37451;SDS011;23314;51.114;6.900;2023-02-14T13:11:50;21.13;;;14.63;;
37451;SDS011;23314;51.114;6.900;2023-02-14T13:17:19;19.17;;;14.73;;
37451;SDS011;23314;51.114;6.900;2023-02-14T13:22:43;20.10;;;15.30;;
37451;SDS011;23314;51.114;6.900;2023-02-14T13:25:18;21.40;;;14.93;;
37451;SDS011;23314;51.114;6.900;2023-02-14T13:27:55;19.93;;;14.33;;
37451;SDS011;23314;51.114;6.900;2023-02-14T13:30:29;19.07;;;15.03;;
37451;SDS011;23314;51.114;6.900;2023-02-14T13:32:57;16.73;;;13.90;;
37451;SDS011;23314;51.114;6.900;2023-02-14T13:35:27;22.67;;;16.30;;
37451;SDS011;23314;51.114;6.900;2023-02-14T13:37:54;22.03;;;15.47;;
37451;SDS011;23314;51.114;6.900;2023-02-14T13:40:25;22.20;;;15.07;;
37451;SDS011;23314;51.114;6.900;2023-02-14T13:42:53;21.50;;;15.33;;
37451;SDS011;23314;51.114;6.900;2023-02-14T13:48:03;20.10;;;14.03;;
37451;SDS011;23314;51.114;6.900;2023-02-14T13:50:36;22.20;;;13.93;;
37451;SDS011;23314;51.114;6.900;2023-02-14T13:53:09;18.33;;;14.63;;
37451;SDS011;23314;51.114;6.900;2023-02-14T13:55:36;19.40;;;14.70;;
37451;SDS011;23314;51.114;6.900;2023-02-14T13:58:16;18.90;;;13.93;;
37451;SDS011;23314;51.114;6.900;2023-02-14T14:00:50;19.33;;;13.83;;
37451;SDS011;23314;51.114;6.900;2023-02-14T14:10:56;18.60;;;13.60;;
37451;SDS011;23314;51.114;6.900;2023-02-14T14:18:48;19.63;;;13.47;;
37451;SDS011;23314;51.114;6.900;2023-02-14T14:29:21;20.57;;;14.70;;
37451;SDS011;23314;51.114;6.900;2023-02-14T14:31:51;18.83;;;13.90;;
37451;SDS011;23314;51.114;6.900;2023-02-14T14:34:20;19.40;;;13.43;;
37451;SDS011;23314;51.114;6.900;2023-02-14T14:37:01;15.93;;;13.07;;
37451;SDS011;23314;51.114;6.900;2023-02-14T14:39:40;18.50;;;14.07;;
37451;SDS011;23314;51.114;6.900;2023-02-14T14:42:07;20.27;;;14.00;;
37451;SDS011;23314;51.114;6.900;2023-02-14T14:44:41;18.87;;;13.87;;
37451;SDS011;23314;51.114;6.900;2023-02-14T14:47:15;18.07;;;13.90;;
37451;SDS011;23314;51.114;6.900;2023-02-14T14:49:46;19.40;;;13.43;;
37451;SDS011;23314;51.114;6.900;2023-02-14T14:52:54;18.47;;;14.10;;
37451;SDS011;23314;51.114;6.900;2023-02-14T14:55:03;19.63;;;13.83;;
37451;SDS011;23314;51.114;6.900;2023-02-14T14:57:30;22.17;;;13.50;;
37451;SDS011;23314;51.114;6.900;2023-02-14T15:00:06;17.83;;;13.00;;
37451;SDS011;23314;51.114;6.900;2023-02-14T15:02:34;19.00;;;13.13;;
37451;SDS011;23314;51.114;6.900;2023-02-14T15:05:12;19.67;;;13.23;;
37451;SDS011;23314;51.114;6.900;2023-02-14T15:07:47;20.27;;;13.17;;
37451;SDS011;23314;51.114;6.900;2023-02-14T15:10:22;17.53;;;12.43;;
37451;SDS011;23314;51.114;6.900;2023-02-14T15:12:50;16.47;;;12.33;;
37451;SDS011;23314;51.114;6.900;2023-02-14T15:15:36;21.17;;;12.80;;
37451;SDS011;23314;51.114;6.900;2023-02-14T15:18:10;17.83;;;12.70;;
37451;SDS011;23314;51.114;6.900;2023-02-14T15:20:37;18.13;;;11.87;;
37451;SDS011;23314;51.114;6.900;2023-02-14T15:23:03;19.30;;;12.03;;
37451;SDS011;23314;51.114;6.900;2023-02-14T15:25:33;18.13;;;11.27;;
37451;SDS011;23314;51.114;6.900;2023-02-14T15:28:00;21.53;;;14.80;;
37451;SDS011;23314;51.114;6.900;2023-02-14T15:30:28;17.93;;;12.43;;
37451;SDS011;23314;51.114;6.900;2023-02-14T15:32:58;18.83;;;12.37;;
37451;SDS011;23314;51.114;6.900;2023-02-14T15:35:26;17.03;;;12.17;;
37451;SDS011;23314;51.114;6.900;2023-02-14T15:37:55;23.33;;;12.20;;
37451;SDS011;23314;51.114;6.900;2023-02-14T15:40:23;14.80;;;11.53;;
37451;SDS011;23314;51.114;6.900;2023-02-14T15:42:50;17.23;;;11.93;;
37451;SDS011;23314;51.114;6.900;2023-02-14T15:50:45;17.90;;;10.93;;
37451;SDS011;23314;51.114;6.900;2023-02-14T15:55:44;18.13;;;11.27;;
37451;SDS011;23314;51.114;6.900;2023-02-14T15:58:21;17.10;;;11.67;;
37451;SDS011;23314;51.114;6.900;2023-02-14T16:00:50;15.87;;;11.13;;
37451;SDS011;23314;51.114;6.900;2023-02-14T16:03:31;17.60;;;11.87;;
37451;SDS011;23314;51.114;6.900;2023-02-14T16:05:59;16.80;;;11.17;;
37451;SDS011;23314;51.114;6.900;2023-02-14T16:11:13;26.47;;;11.60;;
37451;SDS011;23314;51.114;6.900;2023-02-14T16:13:50;17.00;;;11.77;;
37451;SDS011;23314;51.114;6.900;2023-02-14T16:16:15;19.67;;;11.43;;
37451;SDS011;23314;51.114;6.900;2023-02-14T16:18:45;17.67;;;11.27;;
37451;SDS011;23314;51.114;6.900;2023-02-14T16:23:47;19.87;;;12.30;;
37451;SDS011;23314;51.114;6.900;2023-02-14T16:26:35;20.93;;;12.77;;
37451;SDS011;23314;51.114;6.900;2023-02-14T16:29:03;20.10;;;12.17;;
37451;SDS011;23314;51.114;6.900;2023-02-14T16:31:29;21.93;;;12.23;;
37451;SDS011;23314;51.114;6.900;2023-02-14T16:33:56;22.33;;;11.90;;
37451;SDS011;23314;51.114;6.900;2023-02-14T16:36:25;19.47;;;13.00;;
37451;SDS011;23314;51.114;6.900;2023-02-14T16:38:53;23.50;;;12.53;;
37451;SDS011;23314;51.114;6.900;2023-02-14T16:41:20;15.83;;;11.40;;
37451;SDS011;23314;51.114;6.900;2023-02-14T16:43:47;19.13;;;12.50;;
37451;SDS011;23314;51.114;6.900;2023-02-14T16:46:13;19.97;;;12.33;;
37451;SDS011;23314;51.114;6.900;2023-02-14T16:48:43;19.00;;;11.97;;